Time;durP1;ratioP1;P1;durP2;ratioP2;P2;SDS_P1;SDS_P2;PMS_P1;PMS_P2;Temp;Humidity;BMP_temperature;BMP_pressure;BME280_temperature;BME280_humidity;BME280_pressure;Samples;Min_cycle;Max_cycle;Signal;HPM_P1;HPM_P2
2022/09/30 00:01:26;;;;;;;0.40;0.40;;;;;;;6.64;75.42;99883.22;5066170;28;20021;-67
2022/09/30 00:03:52;;;;;;;0.50;0.50;;;;;;;6.63;75.66;99881.47;5067594;28;20024;-67
2022/09/30 00:06:19;;;;;;;0.50;0.50;;;;;;;6.62;75.66;99878.91;5066200;28;20036;-67
2022/09/30 00:08:45;;;;;;;0.40;0.40;;;;;;;6.64;76.22;99884.94;5067434;28;20021;-67
2022/09/30 00:11:24;;;;;;;0.50;0.50;;;;;;;6.62;76.24;99884.94;5067308;28;20026;-68
2022/09/30 00:13:51;;;;;;;0.40;0.40;;;;;;;6.55;76.31;99870.34;5067494;28;20027;-68
2022/09/30 00:16:18;;;;;;;0.57;0.57;;;;;;;6.61;76.46;99882.34;5067062;28;20092;-68
2022/09/30 00:18:44;;;;;;;0.50;0.50;;;;;;;6.60;76.62;99886.66;5066575;28;20053;-68
2022/09/30 00:21:11;;;;;;;0.40;0.40;;;;;;;6.55;76.66;99876.34;5066838;28;20040;-68
2022/09/30 00:23:38;;;;;;;0.50;0.50;;;;;;;6.59;76.71;99886.66;5065845;28;20466;-68
2022/09/30 00:26:06;;;;;;;0.40;0.40;;;;;;;6.59;76.91;99897.84;5067093;28;20028;-68
2022/09/30 00:28:32;;;;;;;0.50;0.50;;;;;;;6.60;76.93;99891.81;5067184;28;20051;-68
2022/09/30 00:31:13;;;;;;;0.43;0.43;;;;;;;6.61;76.98;99890.97;5066703;28;20485;-67
2022/09/30 00:33:38;;;;;;;0.43;0.43;;;;;;;6.57;77.04;99874.63;5067027;28;20032;-67
2022/09/30 00:36:04;;;;;;;0.50;0.50;;;;;;;6.60;77.32;99872.91;5066904;28;20045;-67
2022/09/30 00:38:30;;;;;;;0.40;0.40;;;;;;;6.64;77.28;99877.19;5066939;28;20017;-67
2022/09/30 00:40:56;;;;;;;0.50;0.50;;;;;;;6.64;77.42;99880.66;5066653;28;20075;-67
2022/09/30 00:43:50;;;;;;;0.50;0.50;;;;;;;6.61;77.61;99882.34;5066753;28;20076;-67
2022/09/30 00:46:37;;;;;;;0.50;0.50;;;;;;;6.60;78.16;99878.06;5066549;28;20048;-67
2022/09/30 00:49:10;;;;;;;0.50;0.50;;;;;;;6.59;78.16;99879.78;5066476;28;20508;-67
2022/09/30 00:51:40;;;;;;;0.50;0.50;;;;;;;6.60;78.08;99878.91;5066630;28;20024;-67
2022/09/30 00:54:12;;;;;;;0.50;0.50;;;;;;;6.62;78.21;99881.47;5065287;28;20108;-67
2022/09/30 00:56:45;;;;;;;0.50;0.50;;;;;;;6.62;78.04;99882.34;5066634;28;20025;-67
2022/09/30 00:59:26;;;;;;;0.50;0.50;;;;;;;6.61;78.22;99877.19;5066658;28;20080;-67
2022/09/30 01:01:51;;;;;;;0.50;0.50;;;;;;;6.69;78.31;99883.22;5066118;28;20043;-67
2022/09/30 01:04:20;;;;;;;0.50;0.50;;;;;;;6.76;78.89;99878.88;5064949;28;20480;-67
2022/09/30 01:06:47;;;;;;;0.50;0.50;;;;;;;6.82;79.04;99879.75;5066358;28;20142;-68
2022/09/30 01:09:12;;;;;;;0.50;0.50;;;;;;;6.91;78.95;99883.19;5066207;28;20025;-67
2022/09/30 01:11:38;;;;;;;0.50;0.50;;;;;;;6.92;78.90;99878.00;5064925;28;20059;-67
2022/09/30 01:14:10;;;;;;;0.40;0.40;;;;;;;6.96;78.98;99876.28;5066163;28;20088;-66
2022/09/30 01:16:57;;;;;;;0.60;0.60;;;;;;;6.96;78.71;99880.59;5066144;28;20052;-68
2022/09/30 01:19:51;;;;;;;0.50;0.50;;;;;;;7.01;78.86;99878.88;5065663;28;20120;-67
2022/09/30 01:22:28;;;;;;;0.40;0.40;;;;;;;7.02;78.94;99883.16;5066007;28;20039;-67
2022/09/30 01:24:59;;;;;;;0.50;0.50;;;;;;;7.02;78.69;99872.81;5065885;28;20037;-66
2022/09/30 01:27:49;;;;;;;0.60;0.60;;;;;;;7.01;78.62;99884.88;5066007;28;20080;-67
2022/09/30 01:30:20;;;;;;;0.40;0.40;;;;;;;6.99;78.76;99878.88;5065304;28;20338;-66
2022/09/30 01:33:19;;;;;;;0.40;0.40;;;;;;;6.96;78.77;99871.13;5065926;28;20038;-67
2022/09/30 01:36:10;;;;;;;0.65;0.65;;;;;;;7.01;78.72;99879.69;5065584;28;20032;-67
2022/09/30 01:38:47;;;;;;;0.50;0.50;;;;;;;7.04;78.66;99884.03;5065938;28;20039;-66
2022/09/30 01:41:24;;;;;;;0.40;0.40;;;;;;;7.02;78.85;99876.28;5064138;28;20362;-66
2022/09/30 01:44:11;;;;;;;0.40;0.40;;;;;;;7.02;78.61;99878.84;5065784;28;20021;-67
2022/09/30 01:46:43;;;;;;;0.40;0.40;;;;;;;7.02;78.45;99881.44;5065515;28;20128;-67
2022/09/30 01:49:32;;;;;;;0.52;0.52;;;;;;;6.99;78.59;99875.41;5065602;28;20465;-67
2022/09/30 01:52:04;;;;;;;0.50;0.50;;;;;;;6.94;78.58;99873.72;5064260;28;20119;-67
2022/09/30 01:54:51;;;;;;;0.40;0.40;;;;;;;6.91;78.43;99878.88;5064426;28;20131;-67
2022/09/30 01:57:27;;;;;;;0.50;0.50;;;;;;;6.99;78.40;99885.75;5065638;28;20040;-67
2022/09/30 02:00:06;;;;;;;0.40;0.40;;;;;;;6.88;78.40;99878.03;5063759;28;20042;-67
2022/09/30 02:02:40;;;;;;;0.40;0.40;;;;;;;6.88;78.58;99883.19;5065295;28;20033;-67
2022/09/30 02:05:14;;;;;;;0.50;0.50;;;;;;;6.82;78.60;99884.91;5065526;28;20017;-67
2022/09/30 02:07:46;;;;;;;0.50;0.50;;;;;;;6.81;78.50;99884.91;5063885;28;20028;-66
2022/09/30 02:10:19;;;;;;;0.52;0.52;;;;;;;6.75;78.55;99877.19;5065299;28;20025;-66
2022/09/30 02:12:50;;;;;;;0.40;0.40;;;;;;;6.79;78.79;99873.72;5065460;28;20078;-66
2022/09/30 02:15:24;;;;;;;0.50;0.50;;;;;;;6.78;78.75;99874.59;5065295;28;20033;-66
2022/09/30 02:18:23;;;;;;;0.50;0.50;;;;;;;6.82;78.64;99878.91;5065303;28;20135;-66
2022/09/30 02:20:55;;;;;;;0.40;0.40;;;;;;;6.80;78.66;99875.47;5054315;28;20044;-66
2022/09/30 02:23:34;;;;;;;0.50;0.50;;;;;;;6.77;78.95;99876.31;5065308;28;20025;-66
2022/09/30 02:26:00;;;;;;;0.50;0.50;;;;;;;6.78;78.89;99884.91;5065414;28;20052;-67
2022/09/30 02:28:29;;;;;;;0.50;0.50;;;;;;;6.75;78.95;99887.50;5065445;28;20032;-66
2022/09/30 02:30:58;;;;;;;0.45;0.45;;;;;;;6.75;78.97;99883.22;5065011;28;20029;-69
2022/09/30 02:33:31;;;;;;;0.50;0.50;;;;;;;6.72;78.75;99874.59;5065225;28;20025;-66
2022/09/30 02:36:05;;;;;;;0.50;0.50;;;;;;;6.72;78.75;99884.91;5065240;28;20025;-66
2022/09/30 02:38:36;;;;;;;0.45;0.45;;;;;;;6.68;78.66;99887.50;5065499;28;20021;-66
2022/09/30 02:41:12;;;;;;;0.80;0.80;;;;;;;6.66;78.51;99885.81;5066176;28;20079;-67
2022/09/30 02:43:40;;;;;;;0.40;0.40;;;;;;;6.63;78.34;99884.06;5070365;28;20032;-67
2022/09/30 02:46:09;;;;;;;0.50;0.50;;;;;;;6.63;78.67;99886.63;5078545;28;20033;-67
2022/09/30 02:48:43;;;;;;;0.50;0.50;;;;;;;6.61;78.76;99883.22;5068976;28;20079;-66
2022/09/30 02:51:36;;;;;;;0.45;0.45;;;;;;;6.62;78.85;99881.47;5069115;28;20029;-68
2022/09/30 02:54:30;;;;;;;0.50;0.50;;;;;;;6.61;78.88;99887.50;5069319;28;20116;-67
2022/09/30 02:57:21;;;;;;;0.50;0.50;;;;;;;6.57;78.78;99890.09;5069013;28;20481;-66
2022/09/30 02:59:51;;;;;;;0.50;0.50;;;;;;;6.48;78.63;99872.06;5068640;28;20027;-67
2022/09/30 03:02:16;;;;;;;0.50;0.50;;;;;;;6.55;78.89;99890.97;5068845;28;20025;-67
2022/09/30 03:04:45;;;;;;;0.50;0.50;;;;;;;6.54;79.00;99884.94;5068929;28;20017;-67
2022/09/30 03:07:11;;;;;;;0.40;0.40;;;;;;;6.55;79.29;99890.97;5067313;28;20361;-67
2022/09/30 03:09:36;;;;;;;0.50;0.50;;;;;;;6.59;79.46;99886.66;5067247;28;20055;-67
2022/09/30 03:12:10;;;;;;;0.50;0.50;;;;;;;6.59;79.15;99902.13;5068317;28;20020;-67
2022/09/30 03:14:37;;;;;;;0.60;0.60;;;;;;;6.58;79.38;99901.28;5068665;28;20025;-67
2022/09/30 03:17:27;;;;;;;0.50;0.50;;;;;;;6.58;79.50;99896.13;5068153;28;20052;-67
2022/09/30 03:20:10;;;;;;;0.50;0.50;;;;;;;6.58;79.47;99898.69;5067791;28;20045;-67
2022/09/30 03:23:05;;;;;;;0.50;0.50;;;;;;;6.60;79.55;99901.28;5068215;28;20043;-67
2022/09/30 03:25:36;;;;;;;0.40;0.40;;;;;;;6.58;79.64;99906.44;5057327;28;20092;-68
2022/09/30 03:28:17;;;;;;;0.50;0.50;;;;;;;6.56;79.82;99903.88;5067020;28;20029;-67
2022/09/30 03:31:22;;;;;;;0.50;0.50;;;;;;;6.60;79.83;99903.88;5066854;28;20028;-66
2022/09/30 03:33:54;;;;;;;0.40;0.40;;;;;;;6.48;79.76;99900.41;5066901;28;20044;-67
2022/09/30 03:36:29;;;;;;;0.47;0.47;;;;;;;6.52;79.75;99906.41;5068115;28;20025;-67
2022/09/30 03:39:03;;;;;;;0.50;0.50;;;;;;;6.52;80.11;99915.03;5066709;28;20080;-66
2022/09/30 03:41:44;;;;;;;0.50;0.50;;;;;;;6.52;79.96;99916.72;5067905;28;20032;-66
2022/09/30 03:44:27;;;;;;;0.43;0.43;;;;;;;6.51;80.01;99915.88;5066858;28;20052;-67
2022/09/30 03:47:07;;;;;;;0.45;0.45;;;;;;;6.51;80.15;99915.03;5066301;28;20020;-67
2022/09/30 03:49:38;;;;;;;0.40;0.40;;;;;;;6.49;80.00;99925.34;5066305;28;20036;-67
2022/09/30 03:52:08;;;;;;;0.50;0.50;;;;;;;6.51;80.01;99927.91;5066372;28;20032;-67
2022/09/30 03:54:45;;;;;;;0.50;0.50;;;;;;;6.53;80.07;99928.78;5065141;28;20067;-66
2022/09/30 03:57:10;;;;;;;0.50;0.50;;;;;;;6.56;80.04;99936.53;5066934;28;20084;-66
2022/09/30 03:59:35;;;;;;;0.50;0.50;;;;;;;6.59;80.00;99941.69;5066272;28;20028;-67
2022/09/30 04:02:01;;;;;;;0.75;0.75;;;;;;;6.60;80.05;99943.38;5067373;28;20021;-68
2022/09/30 04:04:26;;;;;;;0.40;0.40;;;;;;;6.66;80.22;99938.22;5067517;28;20508;-68
2022/09/30 04:06:51;;;;;;;0.40;0.40;;;;;;;6.68;80.30;99939.09;5066147;28;20021;-67
2022/09/30 04:09:17;;;;;;;0.50;0.50;;;;;;;6.73;80.31;99951.13;5067345;28;20025;-67
2022/09/30 04:11:42;;;;;;;0.45;0.45;;;;;;;6.74;80.40;99952.88;5067354;28;20029;-68
2022/09/30 04:14:08;;;;;;;1.27;1.25;;;;;;;6.74;80.38;99943.38;5067446;28;20149;-67
2022/09/30 04:16:34;;;;;;;0.50;0.50;;;;;;;6.76;80.41;99948.53;5067146;28;20550;-68
2022/09/30 04:18:59;;;;;;;0.50;0.50;;;;;;;6.81;80.25;99950.28;5067254;28;20515;-68
2022/09/30 04:21:27;;;;;;;0.50;0.50;;;;;;;6.85;80.36;99953.72;5067261;28;20028;-73
2022/09/30 04:23:53;;;;;;;0.68;0.68;;;;;;;6.87;80.29;99946.81;5065896;28;20021;-70
2022/09/30 04:26:18;;;;;;;0.50;0.50;;;;;;;6.91;80.30;99961.47;5065920;28;20028;-68
2022/09/30 04:28:45;;;;;;;0.47;0.47;;;;;;;6.90;80.09;99958.88;5066884;28;20025;-69
2022/09/30 04:31:11;;;;;;;0.52;0.52;;;;;;;6.89;79.97;99962.31;5066778;28;20032;-69
2022/09/30 04:33:38;;;;;;;0.50;0.50;;;;;;;6.86;79.97;99957.16;5067098;28;20024;-68
2022/09/30 04:36:04;;;;;;;0.50;0.50;;;;;;;6.86;79.96;99959.72;5066758;28;20040;-68
2022/09/30 04:38:30;;;;;;;0.40;0.40;;;;;;;6.84;80.20;99954.56;5066852;28;20049;-68
2022/09/30 04:40:56;;;;;;;0.50;0.50;;;;;;;6.82;80.08;99956.31;5066661;28;20028;-68
2022/09/30 04:43:23;;;;;;;0.40;0.40;;;;;;;6.81;80.02;99960.59;5067076;28;20029;-68
2022/09/30 04:45:49;;;;;;;0.50;0.50;;;;;;;6.83;80.06;99955.44;5066689;28;20029;-68
2022/09/30 04:48:15;;;;;;;0.50;0.50;;;;;;;6.87;80.24;99953.72;5066562;28;20032;-68
2022/09/30 04:50:42;;;;;;;0.50;0.50;;;;;;;6.86;80.28;99957.16;5066779;28;20024;-67
2022/09/30 04:53:15;;;;;;;0.40;0.40;;;;;;;6.82;80.44;99953.72;5067011;28;20028;-68
2022/09/30 04:55:41;;;;;;;0.50;0.50;;;;;;;6.82;80.65;99954.56;5065244;28;20366;-68
2022/09/30 04:58:07;;;;;;;0.50;0.50;;;;;;;6.87;80.64;99959.72;5066537;28;20092;-66
2022/09/30 05:00:32;;;;;;;0.50;0.50;;;;;;;6.87;80.72;99959.72;5066329;28;20021;-70
2022/09/30 05:02:57;;;;;;;0.40;0.40;;;;;;;6.90;80.99;99964.06;5063683;28;20381;-70
2022/09/30 05:05:23;;;;;;;0.50;0.50;;;;;;;6.93;81.19;99962.31;5065007;28;20051;-66
2022/09/30 05:07:48;;;;;;;0.50;0.50;;;;;;;6.98;80.85;99962.31;5065132;28;20079;-65
2022/09/30 05:10:15;;;;;;;0.50;0.50;;;;;;;6.93;81.22;99956.31;5065036;28;20453;-67
2022/09/30 05:12:40;;;;;;;0.50;0.50;;;;;;;6.97;81.15;99960.59;5066242;28;20085;-67
2022/09/30 05:15:07;;;;;;;0.47;0.47;;;;;;;6.92;81.19;99955.44;5065832;28;20036;-69
2022/09/30 05:17:32;;;;;;;0.50;0.50;;;;;;;6.99;81.50;99956.28;5066146;28;20017;-68
2022/09/30 05:19:58;;;;;;;0.50;0.50;;;;;;;7.04;81.63;99956.28;5065698;28;20138;-69
2022/09/30 05:22:24;;;;;;;0.50;0.50;;;;;;;7.10;81.32;99960.56;5064636;28;20032;-69
2022/09/30 05:24:52;;;;;;;0.50;0.50;;;;;;;7.10;81.24;99960.56;5065774;28;20021;-69
2022/09/30 05:27:19;;;;;;;0.50;0.50;;;;;;;7.11;81.05;99958.00;5065820;28;20049;-69
2022/09/30 05:30:16;;;;;;;1.13;1.13;;;;;;;6.93;80.72;99933.06;5065879;28;20025;-70
2022/09/30 05:32:47;;;;;;;0.50;0.50;;;;;;;7.08;80.67;99955.41;5062294;28;20041;-71
2022/09/30 05:35:13;;;;;;;0.40;0.40;;;;;;;7.14;80.80;99970.88;5062907;28;20029;-70
2022/09/30 05:38:11;;;;;;;0.50;0.50;;;;;;;7.02;80.49;99947.69;5064536;28;20040;-70
2022/09/30 05:40:38;;;;;;;0.50;0.50;;;;;;;7.14;80.38;99957.16;5061051;28;20028;-70
2022/09/30 05:43:04;;;;;;;0.85;0.85;;;;;;;7.21;80.22;99965.72;5064870;28;20020;-69
2022/09/30 05:45:29;;;;;;;0.50;0.50;;;;;;;7.19;80.32;99965.72;5064189;28;20092;-73
2022/09/30 05:47:55;;;;;;;0.50;0.50;;;;;;;7.22;80.62;99967.47;5064619;28;20033;-67
2022/09/30 05:50:22;;;;;;;0.50;0.50;;;;;;;7.24;80.51;99964.00;5064402;28;20064;-65
2022/09/30 05:52:48;;;;;;;0.50;0.50;;;;;;;7.21;80.54;99943.34;5064552;28;20504;-70
2022/09/30 05:55:17;;;;;;;0.50;0.50;;;;;;;7.27;80.41;99964.00;5062555;28;20032;-70
2022/09/30 05:57:46;;;;;;;0.50;0.50;;;;;;;7.24;80.27;99950.22;5064003;28;20021;-71
2022/09/30 06:00:12;;;;;;;0.50;0.50;;;;;;;7.18;80.58;99943.34;5061821;28;20036;-71
2022/09/30 06:02:38;;;;;;;0.50;0.50;;;;;;;7.18;80.36;99959.72;5064291;28;20036;-70
2022/09/30 06:05:08;;;;;;;0.50;0.50;;;;;;;7.14;80.39;99947.66;5064290;28;20033;-70
2022/09/30 06:07:35;;;;;;;0.40;0.40;;;;;;;7.19;80.65;99958.84;5062159;28;20024;-71
2022/09/30 06:10:01;;;;;;;0.50;0.50;;;;;;;7.23;80.80;99956.25;5064253;28;20021;-70
2022/09/30 06:12:27;;;;;;;0.50;0.50;;;;;;;7.20;80.64;99957.13;5063014;28;20021;-70
2022/09/30 06:14:53;;;;;;;0.40;0.40;;;;;;;7.31;80.75;99955.41;5063030;28;20024;-70
2022/09/30 06:17:18;;;;;;;0.50;0.50;;;;;;;7.38;80.61;99948.47;5063205;28;20366;-70
2022/09/30 06:19:44;;;;;;;0.50;0.50;;;;;;;7.48;80.83;99959.63;5063904;28;20052;-70
2022/09/30 06:22:09;;;;;;;0.50;0.50;;;;;;;7.59;80.50;99962.19;5062718;28;20036;-70
2022/09/30 06:24:34;;;;;;;0.50;0.50;;;;;;;7.65;80.40;99956.16;5064199;28;20035;-70
2022/09/30 06:26:59;;;;;;;0.50;0.50;;;;;;;7.62;79.98;99944.09;5062743;28;20112;-70
2022/09/30 06:29:25;;;;;;;0.40;0.40;;;;;;;7.65;79.77;99954.41;5063850;28;20021;-70
2022/09/30 06:31:50;;;;;;;0.50;0.50;;;;;;;7.69;80.04;99963.88;5063986;28;20029;-70
2022/09/30 06:34:16;;;;;;;1.13;1.13;;;;;;;7.73;79.84;99950.97;5062821;28;20025;-70
2022/09/30 06:36:41;;;;;;;0.47;0.47;;;;;;;7.75;79.78;99959.53;5063929;28;20021;-71
2022/09/30 06:39:07;;;;;;;0.60;0.60;;;;;;;7.65;79.80;99946.66;5063965;28;20021;-70
2022/09/30 06:41:32;;;;;;;0.50;0.50;;;;;;;7.81;79.43;99969.88;5063869;28;20025;-72
2022/09/30 06:43:58;;;;;;;0.57;0.57;;;;;;;7.76;79.72;99964.72;5063971;28;20033;-72
2022/09/30 06:46:24;;;;;;;0.40;0.40;;;;;;;7.72;79.86;99965.59;5063462;28;20025;-70
2022/09/30 06:48:53;;;;;;;0.50;0.50;;;;;;;7.85;79.06;99963.81;5063925;28;20029;-71
2022/09/30 06:51:19;;;;;;;0.40;0.40;;;;;;;7.80;79.16;99957.81;5062409;28;20088;-71
2022/09/30 06:53:44;;;;;;;0.45;0.45;;;;;;;7.82;79.45;99956.06;5063872;28;20032;-74
2022/09/30 06:56:10;;;;;;;0.43;0.43;;;;;;;7.94;79.12;99968.06;5063715;28;20025;-74
2022/09/30 06:58:35;;;;;;;0.50;0.50;;;;;;;7.98;79.26;99946.53;5063770;28;20029;-74
2022/09/30 07:01:03;;;;;;;0.50;0.50;;;;;;;8.16;78.95;99953.31;5063483;28;20024;-74
2022/09/30 07:03:34;;;;;;;0.40;0.40;;;;;;;8.12;79.34;99937.81;5064056;28;20035;-75
2022/09/30 07:06:02;;;;;;;0.50;0.50;;;;;;;8.36;79.59;99941.13;5063881;28;20025;-74
2022/09/30 07:08:30;;;;;;;0.40;0.40;;;;;;;9.09;79.21;99931.94;5062495;28;20028;-73
2022/09/30 07:10:57;;;;;;;0.43;0.43;;;;;;;9.75;77.84;99932.94;5062238;28;20026;-75
2022/09/30 07:13:23;;;;;;;0.40;0.40;;;;;;;10.12;77.87;99920.34;5063731;28;20021;-73
2022/09/30 07:15:51;;;;;;;0.40;0.40;;;;;;;10.90;77.00;99919.16;5063534;28;20028;-74
2022/09/30 07:18:19;;;;;;;0.40;0.40;;;;;;;11.66;72.26;99914.25;5062215;28;20025;-75
2022/09/30 07:20:52;;;;;;;0.40;0.40;;;;;;;11.86;72.27;99910.34;5063485;28;20473;-72
2022/09/30 07:23:18;;;;;;;0.40;0.40;;;;;;;12.11;70.19;99920.25;5062417;28;20025;-74
2022/09/30 07:25:59;;;;;;;0.40;0.40;;;;;;;12.31;69.53;99912.00;5063627;28;20029;-74
2022/09/30 07:28:32;;;;;;;0.40;0.40;;;;;;;12.47;67.88;99914.22;5063002;28;20031;-74
2022/09/30 07:30:59;;;;;;;0.32;0.32;;;;;;;12.41;68.60;99903.97;5066197;28;20376;-74
2022/09/30 07:33:30;;;;;;;0.38;0.38;;;;;;;12.72;67.50;99911.00;5065963;28;20039;-74
2022/09/30 07:35:56;;;;;;;0.40;0.40;;;;;;;12.76;66.55;99913.47;5065732;28;20044;-74
2022/09/30 07:38:24;;;;;;;0.40;0.40;;;;;;;12.80;67.56;99918.63;5067387;28;20045;-73
2022/09/30 07:40:59;;;;;;;0.30;0.30;;;;;;;12.99;67.77;99927.66;5066958;28;20025;-74
2022/09/30 07:43:33;;;;;;;0.40;0.40;;;;;;;13.48;68.16;99923.78;5067023;28;20029;-74
2022/09/30 07:46:03;;;;;;;0.30;0.30;;;;;;;14.00;65.55;99929.25;5065690;28;20017;-74
2022/09/30 07:48:45;;;;;;;0.30;0.30;;;;;;;13.86;64.35;99921.84;5065478;28;20017;-74
2022/09/30 07:51:20;;;;;;;0.55;0.55;;;;;;;14.07;64.75;99916.88;5066946;28;20017;-74
2022/09/30 07:53:49;;;;;;;0.40;0.40;;;;;;;14.19;65.88;99926.06;5065219;28;20025;-74
2022/09/30 07:56:15;;;;;;;0.30;0.30;;;;;;;14.48;65.37;99926.91;5066711;28;20024;-74
2022/09/30 07:58:41;;;;;;;0.30;0.30;;;;;;;14.71;65.13;99927.88;5066630;28;20077;-74
2022/09/30 08:01:08;;;;;;;0.30;0.30;;;;;;;14.61;62.93;99918.66;5066311;28;20048;-73
2022/09/30 08:03:37;;;;;;;0.40;0.40;;;;;;;14.10;62.04;99918.53;5065131;28;20035;-73
2022/09/30 08:06:17;;;;;;;0.40;0.40;;;;;;;13.81;63.44;99915.91;5066517;28;20021;-72
2022/09/30 08:08:44;;;;;;;0.30;0.30;;;;;;;14.22;63.87;99922.50;5065079;28;20021;-73
2022/09/30 08:11:11;;;;;;;0.40;0.40;;;;;;;14.39;62.50;99914.16;5066198;28;20481;-73
2022/09/30 08:13:36;;;;;;;1.50;1.40;;;;;;;14.69;61.56;99915.78;5065185;28;20037;-73
2022/09/30 08:16:02;;;;;;;0.30;0.30;;;;;;;14.77;59.80;99929.44;5066123;28;20189;-74
2022/09/30 08:18:28;;;;;;;0.40;0.40;;;;;;;14.34;59.83;99921.25;5065906;28;20021;-74
2022/09/30 08:20:53;;;;;;;0.40;0.40;;;;;;;13.95;59.71;99920.69;5064885;28;20512;-74
2022/09/30 08:23:19;;;;;;;0.30;0.30;;;;;;;13.50;60.40;99925.47;5064817;28;20020;-73
2022/09/30 08:25:45;;;;;;;0.38;0.38;;;;;;;13.16;61.24;99930.72;5066160;28;20055;-72
2022/09/30 08:28:11;;;;;;;0.40;0.40;;;;;;;13.26;62.87;99945.22;5066105;28;20140;-72
2022/09/30 08:30:38;;;;;;;0.35;0.35;;;;;;;13.66;63.09;99935.44;5064562;28;20119;-72
2022/09/30 08:33:03;;;;;;;0.40;0.40;;;;;;;14.17;62.04;99929.63;5066127;28;20052;-73
2022/09/30 08:35:29;;;;;;;0.30;0.30;;;;;;;14.48;61.06;99926.91;5066006;28;20522;-74
2022/09/30 08:37:55;;;;;;;0.40;0.40;;;;;;;14.38;59.95;99921.13;5066004;28;20032;-73
2022/09/30 08:40:25;;;;;;;0.30;0.30;;;;;;;14.35;60.69;99926.44;5064940;28;20458;-73
2022/09/30 08:43:12;;;;;;;0.30;0.30;;;;;;;14.68;60.46;99922.75;5064697;28;20049;-73
2022/09/30 08:46:00;;;;;;;0.30;0.30;;;;;;;15.23;60.64;99915.72;5065673;28;20025;-75
2022/09/30 08:48:35;;;;;;;0.25;0.25;;;;;;;15.79;59.04;99933.75;5065877;28;20063;-75
2022/09/30 08:51:23;;;;;;;0.25;0.25;;;;;;;16.20;57.01;99927.84;5065827;28;20028;-74
2022/09/30 08:53:49;;;;;;;0.28;0.28;;;;;;;16.33;56.53;99929.06;5065781;28;20052;-74
2022/09/30 08:56:28;;;;;;;0.30;0.30;;;;;;;16.66;56.50;99930.34;5064383;28;20032;-74
2022/09/30 08:59:35;;;;;;;0.30;0.30;;;;;;;16.75;53.35;99938.75;5065746;28;20074;-74
2022/09/30 09:02:23;;;;;;;0.30;0.30;;;;;;;16.80;54.41;99935.03;5064938;28;20043;-73
2022/09/30 09:04:51;;;;;;;0.30;0.30;;;;;;;16.93;52.31;99922.25;5063935;28;20071;-75
2022/09/30 09:07:59;;;;;;;0.28;0.28;;;;;;;17.07;52.94;99934.78;5063917;28;20056;-73
2022/09/30 09:10:30;;;;;;;0.30;0.30;;;;;;;17.46;51.66;99925.22;5063983;28;20033;-74
2022/09/30 09:13:11;;;;;;;0.40;0.40;;;;;;;17.52;50.75;99937.25;5065267;28;20100;-74
2022/09/30 09:15:48;;;;;;;0.30;0.30;;;;;;;17.73;49.56;99937.19;5064983;28;20051;-75
2022/09/30 09:18:40;;;;;;;0.50;0.50;;;;;;;17.50;48.17;99928.59;5065195;28;20017;-74
2022/09/30 09:21:20;;;;;;;0.30;0.30;;;;;;;17.02;48.42;99928.88;5063421;28;20048;-74
2022/09/30 09:23:49;;;;;;;0.30;0.30;;;;;;;16.32;49.27;99930.00;5065253;28;20036;-74
2022/09/30 09:26:15;;;;;;;0.30;0.30;;;;;;;15.70;51.81;99919.25;5065073;28;20029;-74
2022/09/30 09:29:13;;;;;;;0.20;0.20;;;;;;;16.81;50.63;99917.53;5065264;28;20417;-69
2022/09/30 09:31:38;;;;;;;0.30;0.30;;;;;;;17.33;49.70;99918.84;5061591;28;20037;-74
2022/09/30 09:34:10;;;;;;;0.30;0.30;;;;;;;18.02;49.19;99916.56;5064883;28;20056;-77
2022/09/30 09:37:03;;;;;;;0.40;0.40;;;;;;;18.46;48.42;99911.91;5064896;28;20025;-73
2022/09/30 09:39:41;;;;;;;0.20;0.20;;;;;;;18.06;47.20;99910.25;5063340;28;20029;-73
2022/09/30 09:42:30;;;;;;;0.30;0.30;;;;;;;18.64;46.64;99912.75;5064547;28;20025;-73
2022/09/30 09:45:17;;;;;;;0.30;0.30;;;;;;;18.60;45.19;99913.84;5063517;28;20025;-75
2022/09/30 09:47:46;;;;;;;0.20;0.20;;;;;;;18.40;44.96;99905.16;5064411;28;20032;-74
2022/09/30 09:51:05;;;;;;;0.30;0.30;;;;;;;18.37;44.63;99909.72;5064564;28;20029;-74
2022/09/30 09:53:44;;;;;;;0.30;0.30;;;;;;;18.43;44.28;99907.66;5021633;28;20030;-73
2022/09/30 09:56:18;;;;;;;0.30;0.30;;;;;;;18.43;44.52;99893.66;5004686;28;20064;-75
2022/09/30 09:59:03;;;;;;;0.40;0.40;;;;;;;18.86;43.83;99895.03;5020956;28;20025;-75
2022/09/30 10:01:33;;;;;;;0.30;0.30;;;;;;;18.76;43.75;99892.00;5021990;28;20037;-74
2022/09/30 10:04:11;;;;;;;0.30;0.30;;;;;;;18.68;44.01;99895.91;5022427;28;20036;-76
2022/09/30 10:06:59;;;;;;;0.20;0.20;;;;;;;18.60;44.04;99887.53;5022379;28;20061;-76
2022/09/30 10:09:36;;;;;;;0.30;0.30;;;;;;;18.78;45.75;99896.28;5022211;28;20106;-73
2022/09/30 10:12:05;;;;;;;0.38;0.38;;;;;;;19.48;42.04;99897.09;5022063;28;20036;-75
2022/09/30 10:14:31;;;;;;;0.20;0.20;;;;;;;18.94;42.86;99890.22;5005848;28;20449;-75
2022/09/30 10:17:01;;;;;;;0.30;0.30;;;;;;;18.79;45.10;99886.59;5005168;28;20026;-75
2022/09/30 10:19:29;;;;;;;0.30;0.30;;;;;;;19.24;43.98;99879.06;5021943;28;20485;-74
2022/09/30 10:22:07;;;;;;;0.30;0.30;;;;;;;19.55;43.88;99884.44;5005382;28;20418;-75
2022/09/30 10:24:34;;;;;;;0.22;0.22;;;;;;;19.80;43.51;99880.44;5022122;28;20306;-75
2022/09/30 10:27:00;;;;;;;0.20;0.20;;;;;;;20.09;42.29;99880.63;5039450;28;20047;-75
2022/09/30 10:29:31;;;;;;;0.20;0.20;;;;;;;20.05;40.74;99869.41;5064155;28;20025;-75
2022/09/30 10:32:02;;;;;;;0.30;0.30;;;;;;;19.47;40.61;99876.13;5063935;28;20033;-74
2022/09/30 10:34:37;;;;;;;0.30;0.30;;;;;;;19.26;41.78;99871.06;5064251;28;20053;-74
2022/09/30 10:37:21;;;;;;;0.65;0.65;;;;;;;19.15;41.03;99869.84;5063983;28;20119;-75
2022/09/30 10:40:00;;;;;;;0.30;0.30;;;;;;;18.77;42.00;99873.53;5064103;28;20027;-75
2022/09/30 10:42:31;;;;;;;0.20;0.20;;;;;;;18.72;41.90;99857.16;5063800;28;20035;-75
2022/09/30 10:45:05;;;;;;;0.20;0.20;;;;;;;18.77;42.27;99864.81;5064092;28;20036;-75
2022/09/30 10:47:31;;;;;;;0.30;0.30;;;;;;;18.62;42.70;99867.28;5063925;28;20025;-76
2022/09/30 10:50:04;;;;;;;0.20;0.20;;;;;;;18.74;42.46;99867.59;5063928;28;20043;-76
2022/09/30 10:52:48;;;;;;;0.30;0.30;;;;;;;19.28;43.27;99861.31;5062605;28;20186;-75
2022/09/30 10:55:19;;;;;;;0.30;0.30;;;;;;;20.22;41.18;99862.34;5063875;28;20041;-75
2022/09/30 10:57:47;;;;;;;0.30;0.30;;;;;;;20.31;40.76;99859.16;5064104;28;20025;-75
2022/09/30 11:00:24;;;;;;;0.95;0.95;;;;;;;19.71;41.78;99868.66;5063991;28;20025;-76
2022/09/30 11:03:21;;;;;;;0.20;0.20;;;;;;;20.06;41.95;99860.56;5063687;28;20100;-76
2022/09/30 11:05:48;;;;;;;0.20;0.20;;;;;;;19.97;42.83;99860.22;5067688;28;20048;-75
2022/09/30 11:08:19;;;;;;;0.22;0.22;;;;;;;20.31;40.58;99858.31;5066315;28;20018;-73
2022/09/30 11:10:56;;;;;;;0.30;0.30;;;;;;;18.85;41.99;99856.53;5067660;28;20024;-74
2022/09/30 11:13:53;;;;;;;0.30;0.30;;;;;;;17.96;43.56;99869.59;5067753;28;20087;-74
2022/09/30 11:16:40;;;;;;;0.30;0.30;;;;;;;16.85;45.70;99867.53;5067352;28;20021;-74
2022/09/30 11:19:43;;;;;;;0.32;0.32;;;;;;;15.92;47.18;99856.47;5067149;28;20045;-74
2022/09/30 11:22:21;;;;;;;0.30;0.30;;;;;;;15.33;48.78;99859.56;5067186;28;20092;-75
2022/09/30 11:24:52;;;;;;;0.30;0.30;;;;;;;15.02;50.28;99865.03;5067480;28;20040;-75
2022/09/30 11:27:30;;;;;;;0.30;0.30;;;;;;;14.82;50.84;99859.63;5065187;28;20027;-74
2022/09/30 11:30:07;;;;;;;0.30;0.30;;;;;;;14.76;51.78;99854.56;5068454;28;20268;-75
2022/09/30 11:32:35;;;;;;;0.30;0.30;;;;;;;14.63;51.71;99852.38;5066958;28;20029;-70
2022/09/30 11:35:28;;;;;;;0.32;0.32;;;;;;;14.34;52.60;99851.63;5065919;28;20029;-73
2022/09/30 11:38:11;;;;;;;0.40;0.40;;;;;;;14.23;53.39;99851.94;5067582;28;20017;-73
2022/09/30 11:40:42;;;;;;;0.30;0.30;;;;;;;14.33;53.39;99842.06;5067529;28;20270;-74
2022/09/30 11:43:27;;;;;;;0.30;0.30;;;;;;;14.13;53.57;99846.19;5067376;28;20051;-74
2022/09/30 11:46:24;;;;;;;0.40;0.40;;;;;;;13.93;54.47;99841.59;5073283;28;20005;-74
2022/09/30 11:49:09;;;;;;;0.40;0.40;;;;;;;13.86;54.74;99832.25;5072294;28;20381;-72
2022/09/30 11:52:12;;;;;;;0.40;0.40;;;;;;;13.90;54.86;99838.25;5067339;28;20428;-73
2022/09/30 11:54:49;;;;;;;0.40;0.40;;;;;;;13.79;55.08;99841.16;5067329;28;20027;-73
2022/09/30 11:57:34;;;;;;;0.40;0.40;;;;;;;13.80;55.28;99837.69;5066993;28;20028;-74
2022/09/30 12:00:12;;;;;;;0.73;0.73;;;;;;;13.78;55.40;99836.88;5066893;28;20032;-74
2022/09/30 12:02:42;;;;;;;0.40;0.40;;;;;;;13.97;55.12;99834.53;5068037;28;20032;-76
2022/09/30 12:05:17;;;;;;;0.40;0.40;;;;;;;13.66;55.90;99831.13;5066708;28;20028;-73
2022/09/30 12:08:18;;;;;;;0.40;0.40;;;;;;;13.50;56.22;99841.13;5070076;28;20028;-74